Time;durP1;ratioP1;P1;durP2;ratioP2;P2;SDS_P1;SDS_P2;PMS_P1;PMS_P2;Temp;Humidity;BMP_temperature;BMP_pressure;BME280_temperature;BME280_humidity;BME280_pressure;Samples;Min_cycle;Max_cycle;Signal;HPM_P1;HPM_P2
2021/04/19 00:01:05;;;;;;;75.95;51.20;;;;;;;6.02;79.76;99127.45;113078;1202;64458;-75
2021/04/19 00:03:32;;;;;;;78.10;52.75;;;;;;;6.08;79.81;99124.50;113178;1203;64394;-75
2021/04/19 00:05:59;;;;;;;76.55;51.55;;;;;;;6.10;79.61;99120.86;113111;1203;64378;-75
2021/04/19 00:08:26;;;;;;;72.70;49.80;;;;;;;6.12;79.64;99123.45;113064;1203;64522;-76
2021/04/19 00:10:53;;;;;;;74.25;49.70;;;;;;;6.11;79.59;99117.30;113227;1203;64362;-77
2021/04/19 00:13:20;;;;;;;67.75;46.65;;;;;;;6.12;79.65;99104.92;113067;1203;64378;-77
2021/04/19 00:15:47;;;;;;;65.35;44.70;;;;;;;6.09;79.67;99105.08;113079;1203;64372;-75
2021/04/19 00:18:14;;;;;;;66.60;45.30;;;;;;;6.06;79.50;99095.49;113091;1202;64477;-76
2021/04/19 00:20:41;;;;;;;66.55;45.00;;;;;;;6.06;79.72;99105.22;113086;1203;64340;-77
2021/04/19 00:23:08;;;;;;;64.80;45.40;;;;;;;6.04;79.59;99107.92;113077;1203;64423;-76
2021/04/19 00:25:35;;;;;;;64.57;44.20;;;;;;;6.05;79.70;99108.78;113199;1203;64369;-77
2021/04/19 00:28:02;;;;;;;64.10;43.27;;;;;;;6.06;79.69;99098.14;113314;1203;64451;-77
2021/04/19 00:30:29;;;;;;;65.67;46.57;;;;;;;6.10;79.76;99098.84;113270;1203;64333;-79
2021/04/19 00:32:56;;;;;;;70.40;46.35;;;;;;;6.13;79.74;99099.58;113399;1202;64589;-77
2021/04/19 00:35:23;;;;;;;64.60;45.25;;;;;;;6.13;79.52;99093.40;113421;1202;64387;-78
2021/04/19 00:37:49;;;;;;;70.35;47.30;;;;;;;6.13;79.63;99109.27;113459;1203;64461;-78
2021/04/19 00:40:19;;;;;;;73.20;49.35;;;;;;;6.10;79.43;99094.40;113241;1203;64478;-78
2021/04/19 00:42:50;;;;;;;68.95;46.80;;;;;;;6.05;79.41;99092.91;113295;1202;64368;-78
2021/04/19 00:45:17;;;;;;;60.83;42.50;;;;;;;5.97;79.38;99095.91;113250;1203;64486;-75
2021/04/19 00:47:45;;;;;;;65.10;46.40;;;;;;;5.96;79.43;99098.64;113141;1202;64449;-76
2021/04/19 00:50:16;;;;;;;60.75;44.40;;;;;;;5.89;79.59;99095.38;113108;1203;64414;-76
2021/04/19 00:52:43;;;;;;;65.55;47.05;;;;;;;5.85;79.67;99096.46;113128;1202;64339;-76
2021/04/19 00:55:14;;;;;;;68.90;48.50;;;;;;;5.81;79.73;99094.88;113129;1203;64406;-76
2021/04/19 00:57:42;;;;;;;70.23;49.87;;;;;;;5.75;79.79;99100.45;113104;1203;64410;-76
2021/04/19 01:00:20;;;;;;;74.65;52.40;;;;;;;5.71;79.96;99100.59;113123;1202;64480;-76
2021/04/19 01:02:47;;;;;;;78.30;53.30;;;;;;;5.71;79.87;99097.95;113160;1202;64420;-76
2021/04/19 01:05:20;;;;;;;76.95;53.50;;;;;;;5.68;79.92;99090.13;113220;1203;64577;-76
2021/04/19 01:07:47;;;;;;;74.47;50.93;;;;;;;5.61;79.94;99101.05;113258;1203;64454;-76
2021/04/19 01:10:14;;;;;;;68.80;48.70;;;;;;;5.54;79.92;99102.28;113229;1203;64400;-77
2021/04/19 01:12:41;;;;;;;68.20;47.97;;;;;;;5.45;79.87;99103.52;113336;1203;64454;-77
2021/04/19 01:15:09;;;;;;;67.85;47.35;;;;;;;5.40;80.10;99100.25;113378;1203;64366;-77
2021/04/19 01:17:35;;;;;;;66.45;45.60;;;;;;;5.37;80.06;99101.25;113410;1203;64375;-78
2021/04/19 01:20:07;;;;;;;66.07;46.40;;;;;;;5.36;80.13;99112.72;113239;1202;64460;-76
2021/04/19 01:22:36;;;;;;;65.80;48.60;;;;;;;5.37;80.21;99103.89;113175;1203;64567;-76
2021/04/19 01:25:08;;;;;;;74.60;51.83;;;;;;;5.40;80.35;99109.03;113139;1203;64451;-76
2021/04/19 01:27:35;;;;;;;70.80;52.35;;;;;;;5.42;80.56;99109.80;113158;1203;64368;-77
2021/04/19 01:30:04;;;;;;;70.43;50.17;;;;;;;5.41;80.47;99101.96;113135;1203;64384;-77
2021/04/19 01:32:31;;;;;;;68.63;51.50;;;;;;;5.39;80.59;99096.73;113142;1203;64449;-77
2021/04/19 01:34:59;;;;;;;76.47;53.20;;;;;;;5.39;80.52;99099.38;113080;1202;64391;-76
2021/04/19 01:37:25;;;;;;;72.20;49.53;;;;;;;5.38;80.54;99099.45;113046;1202;64430;-76
2021/04/19 01:39:52;;;;;;;70.20;48.70;;;;;;;5.35;80.65;99092.52;113112;1203;64419;-76
2021/04/19 01:42:19;;;;;;;76.13;50.03;;;;;;;5.38;80.72;99100.31;113107;1202;64375;-76
2021/04/19 01:44:45;;;;;;;71.00;50.37;;;;;;;5.36;80.65;99098.66;113176;1203;64432;-76
2021/04/19 01:47:12;;;;;;;74.63;53.50;;;;;;;5.34;80.84;99088.14;113158;1203;64467;-76
2021/04/19 01:49:39;;;;;;;79.80;53.30;;;;;;;5.34;80.76;99093.42;113195;1203;64487;-76
2021/04/19 01:52:06;;;;;;;75.10;51.70;;;;;;;5.32;80.77;99089.14;113205;1203;64385;-76
2021/04/19 01:54:33;;;;;;;75.25;51.45;;;;;;;5.27;80.71;99092.00;113196;1203;64366;-77
2021/04/19 01:57:00;;;;;;;74.30;50.65;;;;;;;5.24;80.81;99090.35;113129;1203;64395;-76
2021/04/19 01:59:28;;;;;;;70.10;50.70;;;;;;;5.22;81.02;99091.34;113114;1203;64455;-76
2021/04/19 02:02:08;;;;;;;72.85;49.05;;;;;;;5.25;81.07;99096.48;113147;1203;64346;-76
2021/04/19 02:04:53;;;;;;;68.30;50.87;;;;;;;5.31;81.17;99095.36;113095;1202;64323;-76
2021/04/19 02:07:32;;;;;;;72.57;51.30;;;;;;;5.33;81.20;99090.88;113123;1203;64385;-76
2021/04/19 02:10:35;;;;;;;70.35;49.30;;;;;;;5.37;81.36;99092.44;113113;1202;64317;-76
2021/04/19 02:13:16;;;;;;;68.40;50.30;;;;;;;5.41;81.33;99088.74;113115;1203;64413;-76
2021/04/19 02:16:39;;;;;;;74.05;49.65;;;;;;;5.39;81.32;99087.95;113128;1203;64455;-76
2021/04/19 02:19:18;;;;;;;76.05;53.40;;;;;;;5.36;81.21;99085.45;113121;1203;64387;-76
2021/04/19 02:22:00;;;;;;;77.90;52.80;;;;;;;5.32;81.20;99082.09;113386;1203;64404;-76
2021/04/19 02:24:34;;;;;;;69.80;50.70;;;;;;;5.33;81.28;99078.52;113124;1202;64426;-76
2021/04/19 02:27:05;;;;;;;69.60;49.23;;;;;;;5.31;81.20;99075.07;113103;1202;64496;-76
2021/04/19 02:29:37;;;;;;;70.00;51.10;;;;;;;5.30;81.22;99081.30;113157;1203;64490;-76
2021/04/19 02:32:08;;;;;;;74.50;51.40;;;;;;;5.34;81.47;99074.08;113134;1203;64468;-76
2021/04/19 02:34:35;;;;;;;72.40;50.70;;;;;;;5.38;81.78;99075.67;113209;1203;64426;-76
2021/04/19 02:37:04;;;;;;;72.50;53.20;;;;;;;5.39;81.61;99077.38;113147;1203;64452;-76
2021/04/19 02:39:35;;;;;;;79.33;54.63;;;;;;;5.39;81.58;99077.38;113149;1203;64397;-76
2021/04/19 02:42:02;;;;;;;79.67;57.40;;;;;;;5.38;81.68;99079.16;113140;1203;64576;-76
2021/04/19 02:44:30;;;;;;;79.70;61.17;;;;;;;5.38;81.95;99078.31;113180;1203;64433;-76
2021/04/19 02:46:58;;;;;;;84.10;62.77;;;;;;;5.37;81.83;99073.94;113139;1203;64435;-76
2021/04/19 02:49:29;;;;;;;78.03;57.00;;;;;;;5.38;81.83;99075.67;113183;1203;64427;-76
2021/04/19 02:52:00;;;;;;;79.97;57.33;;;;;;;5.39;82.08;99080.02;113254;1203;64394;-76
2021/04/19 02:54:28;;;;;;;73.85;53.60;;;;;;;5.43;82.26;99081.61;113147;1202;64420;-76
2021/04/19 02:56:56;;;;;;;73.73;52.63;;;;;;;5.46;82.09;99074.39;113226;1203;64362;-76
2021/04/19 02:59:25;;;;;;;71.17;51.43;;;;;;;5.48;82.17;99076.98;113269;1203;64381;-76
2021/04/19 03:01:55;;;;;;;;;;;;;;;5.51;81.94;99079.48;113256;1210;64397;-77
2021/04/19 03:04:29;;;;;;;70.48;50.48;;;;;;;5.48;81.99;99069.91;113178;1202;64388;-77
2021/04/19 03:06:58;;;;;;;68.87;52.73;;;;;;;5.46;81.88;99071.75;113203;1202;64519;-77
2021/04/19 03:09:27;;;;;;;77.70;55.80;;;;;;;5.44;81.95;99065.67;113153;1203;64417;-75
2021/04/19 03:11:57;;;;;;;70.80;54.80;;;;;;;5.44;81.86;99060.38;113428;1203;64385;-76
2021/04/19 03:14:29;;;;;;;78.40;55.97;;;;;;;5.46;81.90;99069.11;113374;1202;64349;-77
2021/04/19 03:17:03;;;;;;;75.77;53.63;;;;;;;5.48;82.17;99071.70;113403;1203;64464;-79
2021/04/19 03:19:33;;;;;;;72.55;53.35;;;;;;;5.48;82.05;99066.41;113274;1203;64416;-79
2021/04/19 03:22:02;;;;;;;71.53;52.27;;;;;;;5.45;82.00;99064.77;113324;1202;64419;-77
2021/04/19 03:24:30;;;;;;;70.07;50.90;;;;;;;5.41;81.87;99062.31;113429;1203;64359;-76
2021/04/19 03:27:00;;;;;;;67.70;49.30;;;;;;;5.38;81.97;99065.95;113354;1203;64365;-76
2021/04/19 03:29:29;;;;;;;73.70;53.65;;;;;;;5.34;81.85;99064.36;113338;1203;64467;-80
2021/04/19 03:32:05;;;;;;;70.50;51.70;;;;;;;5.30;81.90;99057.52;113257;1203;64388;-77
2021/04/19 03:34:35;;;;;;;67.80;51.00;;;;;;;5.28;81.97;99051.43;113099;1203;64423;-75
2021/04/19 03:37:10;;;;;;;73.08;55.30;;;;;;;5.30;81.98;99054.02;113136;1203;64432;-76
2021/04/19 03:39:39;;;;;;;78.73;56.13;;;;;;;5.27;82.17;99047.09;113126;1203;64365;-76
2021/04/19 03:42:08;;;;;;;79.45;58.90;;;;;;;5.26;82.13;99055.92;113406;1202;64413;-75
2021/04/19 03:44:40;;;;;;;87.00;61.90;;;;;;;5.22;82.25;99052.56;113223;1203;64372;-75
2021/04/19 03:47:09;;;;;;;86.40;61.30;;;;;;;5.21;82.25;99050.86;113100;1203;65093;-75
2021/04/19 03:49:43;;;;;;;83.30;59.17;;;;;;;5.22;82.33;99057.00;113239;1202;64349;-75
2021/04/19 03:52:18;;;;;;;81.75;58.05;;;;;;;5.21;82.29;99060.55;113074;1203;64330;-75
2021/04/19 03:54:47;;;;;;;81.30;57.75;;;;;;;5.20;82.37;99056.20;113095;1203;64346;-75
2021/04/19 03:57:20;;;;;;;81.65;60.05;;;;;;;5.21;82.33;99058.78;113158;1202;64397;-74
2021/04/19 03:59:53;;;;;;;74.10;53.75;;;;;;;5.23;82.24;99054.27;113086;1203;64468;-75
2021/04/19 04:02:22;;;;;;;77.25;57.95;;;;;;;5.19;82.23;99063.27;113135;1203;64458;-75
2021/04/19 04:04:51;;;;;;;79.50;57.00;;;;;;;5.15;82.26;99048.47;113111;1203;64369;-76
2021/04/19 04:07:19;;;;;;;105.35;72.65;;;;;;;5.18;82.38;99055.40;113155;1203;64388;-76
2021/04/19 04:09:48;;;;;;;101.27;71.67;;;;;;;5.21;82.50;99047.34;113191;1203;64448;-76
2021/04/19 04:12:15;;;;;;;98.10;70.95;;;;;;;5.24;82.43;99050.72;113190;1203;64401;-76
2021/04/19 04:14:53;;;;;;;103.47;71.70;;;;;;;5.27;82.46;99036.52;113181;1203;64391;-76
2021/04/19 04:17:20;;;;;;;95.40;65.70;;;;;;;5.31;82.43;99042.51;113302;1202;64326;-76
2021/04/19 04:19:47;;;;;;;92.20;64.25;;;;;;;5.34;82.54;99037.08;113390;1203;64356;-76
2021/04/19 04:22:16;;;;;;;85.85;62.60;;;;;;;5.38;82.54;99034.24;113398;1203;64403;-76
2021/04/19 04:24:44;;;;;;;92.53;66.93;;;;;;;5.41;82.51;99039.38;113608;1203;64391;-76
2021/04/19 04:27:11;;;;;;;104.75;75.25;;;;;;;5.46;82.24;99025.97;113695;1202;64401;-76
2021/04/19 04:29:39;;;;;;;111.63;80.13;;;;;;;5.50;82.44;99038.98;113605;1202;64447;-75
2021/04/19 04:32:06;;;;;;;113.75;79.40;;;;;;;5.61;82.49;99042.89;113499;1203;64384;-76
2021/04/19 04:34:33;;;;;;;113.60;83.30;;;;;;;5.66;82.46;99032.97;113137;1203;64362;-76
2021/04/19 04:37:01;;;;;;;116.05;86.25;;;;;;;5.69;82.56;99028.41;113081;1203;64465;-75
2021/04/19 04:39:28;;;;;;;111.65;82.15;;;;;;;5.78;82.46;99027.11;113129;1203;64375;-75
2021/04/19 04:41:54;;;;;;;114.20;81.77;;;;;;;5.83;82.43;99030.41;113143;1202;64452;-76
2021/04/19 04:44:27;;;;;;;111.80;83.00;;;;;;;5.87;82.39;99037.28;113253;1203;64414;-76
2021/04/19 04:47:10;;;;;;;115.35;84.70;;;;;;;5.91;82.23;99030.05;113265;1203;64529;-76
2021/04/19 04:49:59;;;;;;;122.35;91.55;;;;;;;6.01;82.38;99028.71;113267;1202;64840;-76
2021/04/19 04:52:29;;;;;;;130.25;98.10;;;;;;;6.10;82.37;99036.19;113126;1203;64362;-76
2021/04/19 04:54:58;;;;;;;134.70;101.30;;;;;;;6.18;82.29;99037.63;113138;1203;64317;-76
2021/04/19 04:57:28;;;;;;;132.90;102.37;;;;;;;6.20;82.21;99033.13;113173;1203;64506;-76
2021/04/19 04:59:56;;;;;;;136.63;103.88;;;;;;;6.19;82.09;99028.73;113175;1203;64372;-76
2021/04/19 05:02:24;;;;;;;135.75;102.30;;;;;;;6.19;82.01;99028.73;113091;1203;64429;-77
2021/04/19 05:04:52;;;;;;;126.40;96.10;;;;;;;6.21;82.17;99027.73;113145;1203;64391;-76
2021/04/19 05:07:20;;;;;;;138.77;103.83;;;;;;;6.22;82.11;99029.47;113141;1203;64381;-76
2021/04/19 05:09:48;;;;;;;143.05;101.10;;;;;;;6.26;82.35;99030.16;113126;1203;64474;-76
2021/04/19 05:12:16;;;;;;;139.87;101.30;;;;;;;6.28;82.32;99036.25;113182;1202;64512;-76
2021/04/19 05:15:09;;;;;;;136.27;99.87;;;;;;;6.32;82.40;99036.03;113115;1203;64378;-77
2021/04/19 05:17:37;;;;;;;143.03;101.77;;;;;;;6.39;82.30;99036.57;113232;1203;64397;-77
2021/04/19 05:20:08;;;;;;;141.90;100.43;;;;;;;6.44;82.12;99033.70;113168;1203;64810;-77
2021/04/19 05:22:35;;;;;;;137.50;98.03;;;;;;;6.46;82.10;99037.99;113377;1203;64470;-79
2021/04/19 05:25:04;;;;;;;135.80;97.20;;;;;;;6.49;82.07;99039.63;113384;1202;64560;-78
2021/04/19 05:27:33;;;;;;;135.95;95.35;;;;;;;6.51;82.21;99037.77;113425;1203;64414;-78
2021/04/19 05:30:00;;;;;;;123.77;87.83;;;;;;;6.49;82.10;99037.83;113319;1203;64394;-77
2021/04/19 05:32:28;;;;;;;122.87;88.70;;;;;;;6.46;82.15;99030.05;113335;1203;64375;-77
2021/04/19 05:34:56;;;;;;;119.80;83.93;;;;;;;6.50;82.17;99028.09;113179;1203;64388;-76
2021/04/19 05:37:25;;;;;;;117.40;82.83;;;;;;;6.56;82.53;99035.75;113208;1202;64838;-77
2021/04/19 05:39:52;;;;;;;119.53;87.60;;;;;;;6.60;82.10;99043.44;113381;1203;64394;-76
2021/04/19 05:42:20;;;;;;;122.40;89.40;;;;;;;6.62;82.15;99037.23;113370;1203;64700;-77
2021/04/19 05:44:47;;;;;;;120.73;88.60;;;;;;;6.64;82.20;99030.92;113244;1203;64423;-77
2021/04/19 05:47:14;;;;;;;124.87;89.23;;;;;;;6.65;81.93;99034.42;113064;1203;65635;-76
2021/04/19 05:49:41;;;;;;;120.00;87.50;;;;;;;6.69;81.98;99034.20;113158;1203;64471;-77
2021/04/19 05:52:09;;;;;;;109.73;83.73;;;;;;;6.73;81.77;99035.75;113116;1203;64464;-78
2021/04/19 05:54:36;;;;;;;111.80;83.40;;;;;;;6.80;81.86;99031.86;113136;1203;64419;-76
2021/04/19 05:57:11;;;;;;;110.80;83.20;;;;;;;6.83;81.85;99036.14;113196;1202;64384;-76
2021/04/19 06:00:15;;;;;;;119.50;84.30;;;;;;;6.90;81.90;99037.55;113417;1203;64544;-78
2021/04/19 06:02:56;;;;;;;104.57;76.90;;;;;;;6.95;81.95;99045.23;113467;1203;64387;-79
2021/04/19 06:05:52;;;;;;;108.05;77.40;;;;;;;6.99;81.82;99028.27;113355;1203;64487;-77
2021/04/19 06:08:27;;;;;;;102.00;74.40;;;;;;;7.00;81.80;99033.50;113477;1202;64362;-76
2021/04/19 06:11:17;;;;;;;94.00;69.30;;;;;;;6.99;81.78;99038.86;113334;1203;64279;-77
2021/04/19 06:13:45;;;;;;;;;;;;;;;6.98;81.79;99045.11;113397;1210;64423;-80
2021/04/19 06:16:14;;;;;;;103.50;74.25;;;;;;;6.97;81.99;99046.02;113320;1202;64553;-79
2021/04/19 06:18:43;;;;;;;100.37;71.10;;;;;;;6.97;82.03;99043.38;113274;1203;64365;-77
2021/04/19 06:21:11;;;;;;;95.48;73.88;;;;;;;7.01;81.97;99039.65;113137;1202;64387;-76
2021/04/19 06:23:40;;;;;;;96.33;72.57;;;;;;;6.98;81.88;99045.96;113157;1203;64429;-76
2021/04/19 06:26:08;;;;;;;100.45;75.65;;;;;;;6.98;82.12;99045.11;113103;1202;64467;-76
2021/04/19 06:28:36;;;;;;;98.80;74.90;;;;;;;6.99;81.95;99052.11;113132;1203;64458;-76
2021/04/19 06:31:06;;;;;;;96.63;68.47;;;;;;;6.98;81.96;99064.51;113218;1203;64468;-76
2021/04/19 06:33:33;;;;;;;85.40;63.20;;;;;;;7.03;82.29;99059.83;113521;1202;64317;-86
2021/04/19 06:36:00;;;;;;;85.45;61.90;;;;;;;7.09;81.89;99071.05;113535;1203;64362;-84
2021/04/19 06:38:26;;;;;;;90.43;65.50;;;;;;;7.08;81.60;99069.32;113240;1203;64476;-85
2021/04/19 06:40:53;;;;;;;96.25;70.20;;;;;;;7.04;81.65;99079.23;113171;1203;64452;-78
2021/04/19 06:43:20;;;;;;;104.23;79.83;;;;;;;7.03;82.02;99077.53;113138;1203;64362;-78
2021/04/19 06:45:48;;;;;;;107.33;78.50;;;;;;;7.02;82.15;99081.09;113199;1203;64342;-79
2021/04/19 06:48:14;;;;;;;104.60;76.90;;;;;;;7.01;82.09;99077.59;113220;1203;64439;-79
2021/04/19 06:50:41;;;;;;;96.50;71.80;;;;;;;7.03;82.07;99082.83;113269;1203;64388;-86
2021/04/19 06:53:08;;;;;;;94.80;72.70;;;;;;;7.03;82.21;99065.13;113553;1203;64352;-79
2021/04/19 06:55:37;;;;;;;89.90;68.35;;;;;;;7.04;82.13;99066.83;113120;1203;64384;-80
2021/04/19 06:58:05;;;;;;;89.95;69.30;;;;;;;7.08;82.21;99067.52;113212;1203;64333;-80
2021/04/19 07:00:32;;;;;;;97.15;71.65;;;;;;;7.13;82.23;99067.30;113226;1202;64521;-80
2021/04/19 07:03:02;;;;;;;95.80;73.20;;;;;;;7.21;82.29;99062.45;113293;1203;64554;-80
2021/04/19 07:05:35;;;;;;;96.80;70.88;;;;;;;7.28;82.09;99061.20;113361;1203;64366;-80
2021/04/19 07:08:05;;;;;;;97.33;73.33;;;;;;;7.36;82.30;99066.09;113385;1203;64397;-80
2021/04/19 07:10:37;;;;;;;98.70;75.27;;;;;;;7.37;82.30;99065.16;113189;1203;64362;-80
2021/04/19 07:13:09;;;;;;;91.95;71.90;;;;;;;7.39;82.56;99066.78;113289;1203;64400;-80
2021/04/19 07:15:47;;;;;;;86.13;65.60;;;;;;;7.45;82.49;99073.55;113313;1203;64423;-81
2021/04/19 07:18:14;;;;;;;80.87;61.47;;;;;;;7.48;82.38;99076.07;113283;1203;64391;-80
2021/04/19 07:20:43;;;;;;;83.17;62.27;;;;;;;7.52;82.29;99072.30;113219;1203;64410;-80
2021/04/19 07:23:10;;;;;;;86.15;67.40;;;;;;;7.50;81.99;99070.67;113201;1203;64385;-80
2021/04/19 07:25:37;;;;;;;92.95;72.00;;;;;;;7.47;82.18;99069.88;113211;1202;64391;-80
2021/04/19 07:28:05;;;;;;;93.03;73.77;;;;;;;7.50;82.24;99068.02;113220;1203;64515;-81
2021/04/19 07:30:33;;;;;;;92.00;72.70;;;;;;;7.44;82.14;99066.55;113284;1203;64368;-81
2021/04/19 07:33:02;;;;;;;85.43;70.53;;;;;;;7.48;82.17;99060.16;113223;1203;64436;-81
2021/04/19 07:35:32;;;;;;;82.57;63.67;;;;;;;7.54;82.33;99051.86;113218;1203;64509;-81
2021/04/19 07:38:03;;;;;;;85.95;64.50;;;;;;;7.60;81.91;99058.63;113216;1203;64343;-81
2021/04/19 07:40:40;;;;;;;79.43;59.47;;;;;;;7.69;82.13;99056.35;113392;1203;64519;-80
2021/04/19 07:43:16;;;;;;;87.50;65.47;;;;;;;7.83;82.10;99044.13;113228;1203;64559;-81
2021/04/19 07:46:02;;;;;;;86.20;66.30;;;;;;;8.02;81.75;99047.47;113506;1203;64317;-81
2021/04/19 07:48:33;;;;;;;87.50;70.30;;;;;;;8.16;81.75;99051.99;113428;1203;64384;-81
2021/04/19 07:51:20;;;;;;;90.80;71.50;;;;;;;8.26;81.69;99047.88;113464;1203;64478;-81
2021/04/19 07:53:47;;;;;;;83.15;65.80;;;;;;;8.38;81.29;99041.03;113434;1203;64608;-81
2021/04/19 07:56:18;;;;;;;78.97;60.77;;;;;;;8.59;80.84;99036.31;113434;1203;64883;-81
2021/04/19 07:58:45;;;;;;;72.87;58.07;;;;;;;8.83;80.80;99035.83;113406;1203;64506;-81
2021/04/19 08:01:11;;;;;;;74.00;58.50;;;;;;;9.07;80.79;99033.50;113237;1202;64369;-81
2021/04/19 08:03:40;;;;;;;71.00;57.07;;;;;;;9.20;80.52;99039.80;113288;1203;64375;-81
2021/04/19 08:06:22;;;;;;;71.75;57.53;;;;;;;9.39;80.34;99035.05;113334;1203;64400;-79
2021/04/19 08:08:49;;;;;;;76.57;60.20;;;;;;;9.54;80.28;99027.09;113459;1203;64720;-80
2021/04/19 08:11:18;;;;;;;76.10;61.80;;;;;;;9.65;80.13;99036.09;113337;1202;64458;-80
2021/04/19 08:13:46;;;;;;;74.70;57.10;;;;;;;9.73;79.54;99026.78;113501;1203;64320;-80
2021/04/19 08:16:19;;;;;;;75.90;59.50;;;;;;;9.75;79.57;99035.53;113472;1203;64442;-81
2021/04/19 08:18:45;;;;;;;78.00;62.60;;;;;;;9.77;79.61;99031.83;113327;1203;64529;-80
2021/04/19 08:21:13;;;;;;;81.75;65.50;;;;;;;9.77;79.38;99028.28;113278;1203;64480;-80
2021/04/19 08:23:41;;;;;;;75.27;60.80;;;;;;;9.85;79.57;99036.67;113306;1203;64428;-82
2021/04/19 08:26:08;;;;;;;77.15;59.65;;;;;;;10.04;79.51;99029.20;113259;1203;64451;-80
2021/04/19 08:28:50;;;;;;;73.20;60.00;;;;;;;10.25;79.08;99023.45;113411;1202;64339;-80
2021/04/19 08:31:18;;;;;;;66.90;53.00;;;;;;;10.49;78.76;99016.54;113459;1203;64589;-81
2021/04/19 08:33:46;;;;;;;67.15;51.70;;;;;;;10.63;78.36;99015.61;113478;1202;64575;-81
2021/04/19 08:36:15;;;;;;;69.95;55.35;;;;;;;10.82;78.08;99019.70;113506;1202;64355;-80
2021/04/19 08:38:42;;;;;;;70.03;55.70;;;;;;;10.97;77.59;99006.19;113369;1203;64387;-80
2021/04/19 08:41:11;;;;;;;71.90;57.37;;;;;;;10.99;77.38;99006.94;113221;1203;64391;-81
2021/04/19 08:43:39;;;;;;;69.00;53.40;;;;;;;11.03;77.34;99009.39;113200;1203;64848;-81
2021/04/19 08:46:08;;;;;;;66.00;51.35;;;;;;;11.09;77.47;98995.66;113445;1203;64413;-82
2021/04/19 08:48:35;;;;;;;65.20;52.97;;;;;;;11.13;77.46;99003.32;113521;1202;64406;-84
2021/04/19 08:51:04;;;;;;;62.95;50.60;;;;;;;11.22;77.30;98991.18;113340;1203;64493;-82
2021/04/19 08:53:31;;;;;;;67.55;53.25;;;;;;;11.27;76.94;98999.72;113448;1203;64327;-84
2021/04/19 08:55:59;;;;;;;64.45;51.85;;;;;;;11.39;76.90;99006.00;113580;1202;64471;-82
2021/04/19 08:58:27;;;;;;;61.90;49.20;;;;;;;11.42;76.62;99008.44;113360;1203;64557;-81
2021/04/19 09:00:59;;;;;;;57.60;46.55;;;;;;;11.57;76.30;99011.86;113391;1203;64318;-83
2021/04/19 09:03:29;;;;;;;63.60;48.55;;;;;;;11.69;75.93;98997.65;113322;1203;64949;-82
2021/04/19 09:05:56;;;;;;;57.10;44.90;;;;;;;11.81;76.39;99003.91;113257;1203;64313;-81
2021/04/19 09:08:23;;;;;;;56.50;43.50;;;;;;;11.84;76.57;99014.37;113238;1203;64541;-81
2021/04/19 09:10:56;;;;;;;52.65;43.80;;;;;;;11.79;76.13;99005.83;113345;1203;64461;-82
2021/04/19 09:13:32;;;;;;;54.55;45.30;;;;;;;11.78;76.27;99007.66;113383;1203;64375;-82
2021/04/19 09:16:20;;;;;;;53.40;43.00;;;;;;;11.75;76.12;98999.88;113327;1203;64519;-81
2021/04/19 09:18:47;;;;;;;49.90;40.60;;;;;;;11.67;76.14;99004.06;113425;1203;64384;-81
2021/04/19 09:21:34;;;;;;;53.33;39.37;;;;;;;11.54;76.17;99004.92;113320;1203;64481;-81
2021/04/19 09:24:07;;;;;;;49.75;39.20;;;;;;;11.35;76.20;99018.70;113347;1203;64385;-81
2021/04/19 09:26:53;;;;;;;49.20;38.47;;;;;;;11.33;76.33;99009.11;113329;1203;64391;-82
2021/04/19 09:29:26;;;;;;;42.00;34.55;;;;;;;11.41;76.32;99006.75;113433;1203;64314;-82
2021/04/19 09:31:59;;;;;;;42.70;34.90;;;;;;;11.53;76.05;99008.56;113444;1203;64387;-82
2021/04/19 09:34:40;;;;;;;43.00;34.80;;;;;;;11.69;76.03;99004.78;113431;1203;64391;-82
2021/04/19 09:37:09;;;;;;;44.30;35.33;;;;;;;11.75;75.91;99005.21;113276;1203;64468;-81
2021/04/19 09:40:06;;;;;;;41.90;33.30;;;;;;;11.65;75.25;99009.50;113428;1203;64416;-81
2021/04/19 09:42:55;;;;;;;35.60;30.27;;;;;;;11.46;75.73;99014.44;113284;1203;64343;-81
2021/04/19 09:45:53;;;;;;;35.00;28.50;;;;;;;11.31;75.58;99009.20;113265;1203;64393;-81
2021/04/19 09:48:26;;;;;;;37.00;29.75;;;;;;;11.12;75.86;99001.63;113175;1203;64529;-80
2021/04/19 09:50:54;;;;;;;38.45;30.30;;;;;;;11.03;75.87;99001.39;113361;1203;64413;-82
2021/04/19 09:53:21;;;;;;;37.90;29.90;;;;;;;10.88;76.12;99000.65;113445;1202;64385;-81
2021/04/19 09:55:47;;;;;;;35.15;28.45;;;;;;;10.74;76.11;99005.11;113337;1202;64314;-81
2021/04/19 09:58:15;;;;;;;37.10;30.00;;;;;;;10.62;76.52;98997.08;113464;1203;64356;-81
2021/04/19 10:00:43;;;;;;;36.95;30.30;;;;;;;10.56;76.86;99003.67;113388;1203;64558;-81
2021/04/19 10:03:11;;;;;;;36.70;29.57;;;;;;;10.46;76.91;99000.76;113491;1203;64761;-83
2021/04/19 10:05:40;;;;;;;35.00;28.27;;;;;;;10.42;77.08;98998.39;113480;1203;64423;-81
2021/04/19 10:08:09;;;;;;;31.40;26.20;;;;;;;10.45;77.02;99003.52;113427;1202;64490;-80
2021/04/19 10:10:37;;;;;;;29.57;25.10;;;;;;;10.42;76.89;98999.23;113473;1202;64476;-81
2021/04/19 10:13:03;;;;;;;35.50;27.40;;;;;;;10.41;77.03;98994.88;113542;1203;64445;-81
2021/04/19 10:15:31;;;;;;;36.35;27.65;;;;;;;10.42;77.19;98995.73;113399;1202;64538;-81
2021/04/19 10:17:59;;;;;;;31.95;26.10;;;;;;;10.39;77.09;98991.45;113244;1203;64391;-82
2021/04/19 10:20:27;;;;;;;31.30;25.10;;;;;;;10.40;77.13;98993.19;113408;1202;64391;-82
2021/04/19 10:23:12;;;;;;;32.00;26.10;;;;;;;10.39;77.18;98986.13;113476;1203;64375;-80
2021/04/19 10:25:53;;;;;;;31.55;25.50;;;;;;;10.34;77.22;98993.56;113448;1203;64480;-80
2021/04/19 10:28:35;;;;;;;25.90;22.60;;;;;;;10.27;77.16;98989.59;113353;1203;64416;-80
2021/04/19 10:31:10;;;;;;;27.50;22.30;;;;;;;10.25;77.20;98989.67;113344;1203;64408;-82
2021/04/19 10:33:38;;;;;;;28.60;21.55;;;;;;;10.26;77.30;98998.52;113465;1202;64476;-81
2021/04/19 10:36:11;;;;;;;24.97;21.73;;;;;;;10.26;77.33;98998.52;113241;1203;64359;-81
2021/04/19 10:38:39;;;;;;;27.63;21.80;;;;;;;10.25;77.33;98989.67;113298;1201;64413;-82
2021/04/19 10:41:08;;;;;;;24.70;20.30;;;;;;;10.21;77.02;98987.31;113332;1203;64445;-82
2021/04/19 10:43:35;;;;;;;26.50;21.25;;;;;;;10.18;77.19;98976.86;113184;1203;64400;-80
2021/04/19 10:46:18;;;;;;;26.10;20.50;;;;;;;10.22;77.02;98979.23;113288;1202;64391;-81
2021/04/19 10:48:48;;;;;;;23.77;20.00;;;;;;;10.28;77.02;98973.52;113341;1203;64400;-81
2021/04/19 10:51:19;;;;;;;24.23;21.07;;;;;;;10.35;76.79;98981.09;113254;1203;64387;-80
2021/04/19 10:53:46;;;;;;;24.40;19.95;;;;;;;10.40;76.73;98977.20;113223;1203;64397;-80
2021/04/19 10:56:21;;;;;;;24.13;19.80;;;;;;;10.41;76.97;98975.38;113191;1203;64365;-80
2021/04/19 10:58:50;;;;;;;24.63;19.93;;;;;;;10.35;76.56;98981.98;113292;1203;64416;-80
2021/04/19 11:01:21;;;;;;;22.45;19.40;;;;;;;10.22;76.24;98979.23;113492;1203;64448;-80
2021/04/19 11:03:50;;;;;;;23.00;19.20;;;;;;;10.15;76.19;98974.41;113464;1203;64366;-80
2021/04/19 11:06:17;;;;;;;22.50;18.40;;;;;;;10.06;76.39;98975.87;113435;1203;64420;-80
2021/04/19 11:08:56;;;;;;;24.23;19.30;;;;;;;9.99;76.65;98970.08;113371;1203;64449;-80
2021/04/19 11:11:39;;;;;;;24.45;19.55;;;;;;;9.93;76.77;98977.63;113530;1203;64314;-80
2021/04/19 11:14:20;;;;;;;22.00;19.60;;;;;;;9.84;76.96;98966.58;114015;1202;64490;-80
2021/04/19 11:17:06;;;;;;;26.65;20.30;;;;;;;9.78;76.88;98972.31;113200;1203;64656;-80
2021/04/19 11:19:40;;;;;;;25.35;19.35;;;;;;;9.70;77.07;98974.61;113196;1203;64402;-80
2021/04/19 11:22:35;;;;;;;25.50;20.30;;;;;;;9.58;77.12;98970.91;113236;1203;64387;-80
2021/04/19 11:25:18;;;;;;;25.20;20.53;;;;;;;9.53;77.53;98975.69;113252;1202;64400;-81
2021/04/19 11:27:52;;;;;;;22.70;18.35;;;;;;;9.53;77.61;98972.16;113315;1203;64266;-81
2021/04/19 11:30:19;;;;;;;23.90;18.20;;;;;;;9.54;77.59;98977.39;113363;1203;64314;-81
2021/04/19 11:32:46;;;;;;;20.93;18.70;;;;;;;9.54;77.55;98971.22;113482;1203;64406;-83